sensor_id;sensor_type;location;lat;lon;timestamp;P1;durP1;ratioP1;P2;durP2;ratioP2
5217;SDS011;26539;51.064;6.346;2023-07-29T00:01:05;10.63;;;4.00;;
5217;SDS011;26539;51.064;6.346;2023-07-29T00:03:31;10.47;;;4.23;;
5217;SDS011;26539;51.064;6.346;2023-07-29T00:05:57;6.90;;;3.60;;
5217;SDS011;26539;51.064;6.346;2023-07-29T00:08:22;4.63;;;3.80;;
5217;SDS011;26539;51.064;6.346;2023-07-29T00:10:48;4.80;;;3.53;;
5217;SDS011;26539;51.064;6.346;2023-07-29T00:13:13;5.73;;;5.23;;
5217;SDS011;26539;51.064;6.346;2023-07-29T00:15:39;3.90;;;3.57;;
5217;SDS011;26539;51.064;6.346;2023-07-29T00:18:04;6.17;;;3.50;;
5217;SDS011;26539;51.064;6.346;2023-07-29T00:20:30;4.37;;;3.50;;
5217;SDS011;26539;51.064;6.346;2023-07-29T00:22:55;6.27;;;3.33;;
5217;SDS011;26539;51.064;6.346;2023-07-29T00:25:23;3.70;;;3.23;;
5217;SDS011;26539;51.064;6.346;2023-07-29T00:27:48;6.03;;;3.40;;
5217;SDS011;26539;51.064;6.346;2023-07-29T00:30:14;8.13;;;3.17;;
5217;SDS011;26539;51.064;6.346;2023-07-29T00:32:40;3.60;;;3.30;;
5217;SDS011;26539;51.064;6.346;2023-07-29T00:35:06;3.53;;;3.23;;
5217;SDS011;26539;51.064;6.346;2023-07-29T00:37:32;12.00;;;3.90;;
5217;SDS011;26539;51.064;6.346;2023-07-29T00:39:57;3.73;;;2.93;;
5217;SDS011;26539;51.064;6.346;2023-07-29T00:42:23;3.60;;;3.30;;
5217;SDS011;26539;51.064;6.346;2023-07-29T00:44:49;5.87;;;3.07;;
5217;SDS011;26539;51.064;6.346;2023-07-29T00:47:15;3.10;;;2.80;;
5217;SDS011;26539;51.064;6.346;2023-07-29T00:49:41;4.93;;;3.20;;
5217;SDS011;26539;51.064;6.346;2023-07-29T00:52:11;3.50;;;3.20;;
5217;SDS011;26539;51.064;6.346;2023-07-29T00:54:38;6.03;;;3.70;;
5217;SDS011;26539;51.064;6.346;2023-07-29T00:57:05;4.43;;;3.50;;
5217;SDS011;26539;51.064;6.346;2023-07-29T00:59:34;6.90;;;3.90;;
5217;SDS011;26539;51.064;6.346;2023-07-29T01:02:03;8.00;;;3.77;;
5217;SDS011;26539;51.064;6.346;2023-07-29T01:04:29;4.13;;;3.07;;
5217;SDS011;26539;51.064;6.346;2023-07-29T01:10:00;3.83;;;3.40;;
5217;SDS011;26539;51.064;6.346;2023-07-29T01:15:29;6.27;;;2.73;;
5217;SDS011;26539;51.064;6.346;2023-07-29T01:21:03;5.03;;;3.10;;
5217;SDS011;26539;51.064;6.346;2023-07-29T01:23:32;12.20;;;3.40;;
5217;SDS011;26539;51.064;6.346;2023-07-29T01:25:59;5.83;;;2.93;;
5217;SDS011;26539;51.064;6.346;2023-07-29T01:28:25;4.83;;;3.07;;
5217;SDS011;26539;51.064;6.346;2023-07-29T01:30:52;12.73;;;3.63;;
5217;SDS011;26539;51.064;6.346;2023-07-29T01:33:36;4.17;;;3.20;;
5217;SDS011;26539;51.064;6.346;2023-07-29T01:36:14;3.60;;;3.03;;
5217;SDS011;26539;51.064;6.346;2023-07-29T01:38:44;6.17;;;3.33;;
5217;SDS011;26539;51.064;6.346;2023-07-29T01:41:10;6.73;;;4.40;;
5217;SDS011;26539;51.064;6.346;2023-07-29T01:43:37;8.23;;;3.03;;
5217;SDS011;26539;51.064;6.346;2023-07-29T01:46:12;5.63;;;3.33;;
5217;SDS011;26539;51.064;6.346;2023-07-29T01:48:38;4.03;;;3.73;;
5217;SDS011;26539;51.064;6.346;2023-07-29T01:51:04;4.03;;;3.63;;
5217;SDS011;26539;51.064;6.346;2023-07-29T01:53:30;7.27;;;4.20;;
5217;SDS011;26539;51.064;6.346;2023-07-29T01:55:56;10.97;;;3.97;;
5217;SDS011;26539;51.064;6.346;2023-07-29T01:58:22;5.93;;;4.20;;
5217;SDS011;26539;51.064;6.346;2023-07-29T02:00:48;8.73;;;3.97;;
5217;SDS011;26539;51.064;6.346;2023-07-29T02:03:13;10.07;;;3.90;;
5217;SDS011;26539;51.064;6.346;2023-07-29T02:05:39;5.30;;;3.60;;
5217;SDS011;26539;51.064;6.346;2023-07-29T02:08:05;5.07;;;3.33;;
5217;SDS011;26539;51.064;6.346;2023-07-29T02:10:30;9.27;;;3.60;;
5217;SDS011;26539;51.064;6.346;2023-07-29T02:12:56;8.57;;;3.60;;
5217;SDS011;26539;51.064;6.346;2023-07-29T02:15:21;8.50;;;4.00;;
5217;SDS011;26539;51.064;6.346;2023-07-29T02:17:49;7.80;;;4.13;;
5217;SDS011;26539;51.064;6.346;2023-07-29T02:20:15;4.03;;;3.73;;
5217;SDS011;26539;51.064;6.346;2023-07-29T02:22:41;4.33;;;3.60;;
5217;SDS011;26539;51.064;6.346;2023-07-29T02:25:06;4.53;;;3.93;;
5217;SDS011;26539;51.064;6.346;2023-07-29T02:27:32;7.03;;;4.07;;
5217;SDS011;26539;51.064;6.346;2023-07-29T02:29:58;6.77;;;4.00;;
5217;SDS011;26539;51.064;6.346;2023-07-29T02:32:24;5.77;;;4.30;;
5217;SDS011;26539;51.064;6.346;2023-07-29T02:34:49;5.80;;;4.40;;
5217;SDS011;26539;51.064;6.346;2023-07-29T02:37:15;5.80;;;4.50;;
5217;SDS011;26539;51.064;6.346;2023-07-29T02:39:40;6.30;;;4.53;;
5217;SDS011;26539;51.064;6.346;2023-07-29T02:42:06;5.13;;;4.63;;
5217;SDS011;26539;51.064;6.346;2023-07-29T02:44:32;7.47;;;5.23;;
5217;SDS011;26539;51.064;6.346;2023-07-29T02:47:00;7.40;;;5.07;;
5217;SDS011;26539;51.064;6.346;2023-07-29T02:49:25;8.57;;;4.53;;
5217;SDS011;26539;51.064;6.346;2023-07-29T02:51:51;5.60;;;4.63;;
5217;SDS011;26539;51.064;6.346;2023-07-29T03:01:06;5.20;;;4.60;;
5217;SDS011;26539;51.064;6.346;2023-07-29T03:03:55;7.23;;;5.00;;
5217;SDS011;26539;51.064;6.346;2023-07-29T03:09:55;5.60;;;4.40;;
5217;SDS011;26539;51.064;6.346;2023-07-29T03:15:27;5.53;;;4.87;;
5217;SDS011;26539;51.064;6.346;2023-07-29T03:21:31;4.27;;;3.87;;
5217;SDS011;26539;51.064;6.346;2023-07-29T03:24:10;9.00;;;4.30;;
5217;SDS011;26539;51.064;6.346;2023-07-29T03:27:11;6.23;;;4.70;;
5217;SDS011;26539;51.064;6.346;2023-07-29T03:30:13;4.73;;;4.23;;
5217;SDS011;26539;51.064;6.346;2023-07-29T03:32:56;6.00;;;4.70;;
5217;SDS011;26539;51.064;6.346;2023-07-29T03:35:22;5.93;;;4.23;;
5217;SDS011;26539;51.064;6.346;2023-07-29T03:37:48;5.63;;;4.23;;
5217;SDS011;26539;51.064;6.346;2023-07-29T03:40:13;7.80;;;4.43;;
5217;SDS011;26539;51.064;6.346;2023-07-29T03:42:39;8.47;;;4.23;;
5217;SDS011;26539;51.064;6.346;2023-07-29T03:45:05;5.27;;;4.70;;
5217;SDS011;26539;51.064;6.346;2023-07-29T03:47:30;4.53;;;4.07;;
5217;SDS011;26539;51.064;6.346;2023-07-29T03:49:56;5.77;;;4.53;;
5217;SDS011;26539;51.064;6.346;2023-07-29T03:52:22;4.70;;;3.93;;
5217;SDS011;26539;51.064;6.346;2023-07-29T03:54:47;4.77;;;3.90;;
5217;SDS011;26539;51.064;6.346;2023-07-29T03:57:16;5.07;;;4.57;;
5217;SDS011;26539;51.064;6.346;2023-07-29T03:59:41;6.77;;;5.03;;
5217;SDS011;26539;51.064;6.346;2023-07-29T04:02:07;6.00;;;5.20;;
5217;SDS011;26539;51.064;6.346;2023-07-29T04:04:33;4.83;;;4.23;;
5217;SDS011;26539;51.064;6.346;2023-07-29T04:06:58;6.57;;;4.77;;
5217;SDS011;26539;51.064;6.346;2023-07-29T04:09:24;8.30;;;4.67;;
5217;SDS011;26539;51.064;6.346;2023-07-29T04:11:50;7.17;;;5.50;;
5217;SDS011;26539;51.064;6.346;2023-07-29T04:14:16;6.40;;;4.90;;
5217;SDS011;26539;51.064;6.346;2023-07-29T04:16:41;4.50;;;4.10;;
5217;SDS011;26539;51.064;6.346;2023-07-29T04:19:07;6.03;;;4.27;;
5217;SDS011;26539;51.064;6.346;2023-07-29T04:21:33;6.60;;;4.93;;
5217;SDS011;26539;51.064;6.346;2023-07-29T04:23:59;5.50;;;5.00;;
5217;SDS011;26539;51.064;6.346;2023-07-29T04:26:24;6.10;;;5.30;;
5217;SDS011;26539;51.064;6.346;2023-07-29T04:28:50;6.10;;;4.53;;
5217;SDS011;26539;51.064;6.346;2023-07-29T04:31:15;6.83;;;5.40;;
5217;SDS011;26539;51.064;6.346;2023-07-29T04:33:41;6.70;;;6.10;;
5217;SDS011;26539;51.064;6.346;2023-07-29T04:36:06;6.40;;;5.80;;
5217;SDS011;26539;51.064;6.346;2023-07-29T04:38:32;8.27;;;6.50;;
5217;SDS011;26539;51.064;6.346;2023-07-29T04:40:58;7.80;;;6.10;;
5217;SDS011;26539;51.064;6.346;2023-07-29T04:43:27;8.50;;;5.87;;
5217;SDS011;26539;51.064;6.346;2023-07-29T04:45:53;11.27;;;6.00;;
5217;SDS011;26539;51.064;6.346;2023-07-29T04:48:19;6.00;;;5.40;;
5217;SDS011;26539;51.064;6.346;2023-07-29T04:50:48;8.77;;;5.73;;
5217;SDS011;26539;51.064;6.346;2023-07-29T04:53:14;8.70;;;5.90;;
5217;SDS011;26539;51.064;6.346;2023-07-29T04:55:41;9.30;;;5.93;;
5217;SDS011;26539;51.064;6.346;2023-07-29T04:58:08;11.87;;;6.30;;
5217;SDS011;26539;51.064;6.346;2023-07-29T05:00:33;6.10;;;5.50;;
5217;SDS011;26539;51.064;6.346;2023-07-29T05:02:59;6.53;;;5.83;;
5217;SDS011;26539;51.064;6.346;2023-07-29T05:05:27;7.00;;;6.03;;
5217;SDS011;26539;51.064;6.346;2023-07-29T05:07:53;6.73;;;5.37;;
5217;SDS011;26539;51.064;6.346;2023-07-29T05:10:18;7.57;;;5.40;;
5217;SDS011;26539;51.064;6.346;2023-07-29T05:12:49;8.60;;;4.87;;
5217;SDS011;26539;51.064;6.346;2023-07-29T05:15:18;6.87;;;5.10;;
5217;SDS011;26539;51.064;6.346;2023-07-29T05:17:44;5.90;;;4.83;;
5217;SDS011;26539;51.064;6.346;2023-07-29T05:20:09;6.83;;;5.17;;
5217;SDS011;26539;51.064;6.346;2023-07-29T05:22:35;12.00;;;5.23;;
5217;SDS011;26539;51.064;6.346;2023-07-29T05:25:00;5.77;;;5.27;;
5217;SDS011;26539;51.064;6.346;2023-07-29T05:27:26;7.87;;;4.97;;
5217;SDS011;26539;51.064;6.346;2023-07-29T05:29:52;4.83;;;4.43;;
5217;SDS011;26539;51.064;6.346;2023-07-29T05:32:17;9.23;;;4.60;;
5217;SDS011;26539;51.064;6.346;2023-07-29T05:34:43;5.63;;;4.70;;
5217;SDS011;26539;51.064;6.346;2023-07-29T05:40:02;9.17;;;5.20;;
5217;SDS011;26539;51.064;6.346;2023-07-29T05:45:32;5.83;;;4.67;;
5217;SDS011;26539;51.064;6.346;2023-07-29T05:48:13;6.17;;;4.43;;
5217;SDS011;26539;51.064;6.346;2023-07-29T05:50:38;7.07;;;4.07;;
5217;SDS011;26539;51.064;6.346;2023-07-29T05:53:04;6.00;;;4.10;;
5217;SDS011;26539;51.064;6.346;2023-07-29T05:55:29;6.77;;;4.03;;
5217;SDS011;26539;51.064;6.346;2023-07-29T05:57:55;4.70;;;4.07;;
5217;SDS011;26539;51.064;6.346;2023-07-29T06:00:21;4.73;;;3.67;;
5217;SDS011;26539;51.064;6.346;2023-07-29T06:02:46;6.20;;;3.60;;
5217;SDS011;26539;51.064;6.346;2023-07-29T06:05:12;5.33;;;3.67;;
5217;SDS011;26539;51.064;6.346;2023-07-29T06:07:37;4.60;;;3.40;;
5217;SDS011;26539;51.064;6.346;2023-07-29T06:10:03;4.57;;;3.80;;
5217;SDS011;26539;51.064;6.346;2023-07-29T06:12:29;4.60;;;3.23;;
5217;SDS011;26539;51.064;6.346;2023-07-29T06:14:54;6.77;;;3.47;;
5217;SDS011;26539;51.064;6.346;2023-07-29T06:17:20;7.20;;;3.37;;
5217;SDS011;26539;51.064;6.346;2023-07-29T06:19:45;4.70;;;3.07;;
5217;SDS011;26539;51.064;6.346;2023-07-29T06:22:11;5.70;;;3.00;;
5217;SDS011;26539;51.064;6.346;2023-07-29T06:24:36;3.90;;;3.00;;
5217;SDS011;26539;51.064;6.346;2023-07-29T06:27:02;4.63;;;3.40;;
5217;SDS011;26539;51.064;6.346;2023-07-29T06:29:28;5.97;;;3.40;;
5217;SDS011;26539;51.064;6.346;2023-07-29T06:31:53;4.03;;;3.00;;
5217;SDS011;26539;51.064;6.346;2023-07-29T06:34:19;8.43;;;2.67;;
5217;SDS011;26539;51.064;6.346;2023-07-29T06:36:45;4.53;;;2.60;;
5217;SDS011;26539;51.064;6.346;2023-07-29T06:39:10;4.53;;;2.60;;
5217;SDS011;26539;51.064;6.346;2023-07-29T06:41:36;3.33;;;2.03;;
5217;SDS011;26539;51.064;6.346;2023-07-29T06:44:02;5.97;;;2.60;;
5217;SDS011;26539;51.064;6.346;2023-07-29T06:46:27;3.93;;;2.00;;
5217;SDS011;26539;51.064;6.346;2023-07-29T06:48:53;6.07;;;2.67;;
5217;SDS011;26539;51.064;6.346;2023-07-29T06:51:19;2.60;;;2.07;;
5217;SDS011;26539;51.064;6.346;2023-07-29T06:53:44;4.50;;;2.13;;
5217;SDS011;26539;51.064;6.346;2023-07-29T06:56:10;5.60;;;2.20;;
5217;SDS011;26539;51.064;6.346;2023-07-29T06:58:35;2.80;;;1.37;;
5217;SDS011;26539;51.064;6.346;2023-07-29T07:01:01;6.17;;;1.93;;
5217;SDS011;26539;51.064;6.346;2023-07-29T07:03:28;3.43;;;1.53;;
5217;SDS011;26539;51.064;6.346;2023-07-29T07:05:53;3.70;;;1.83;;
5217;SDS011;26539;51.064;6.346;2023-07-29T07:08:19;2.80;;;1.20;;
5217;SDS011;26539;51.064;6.346;2023-07-29T07:10:46;1.70;;;1.20;;
5217;SDS011;26539;51.064;6.346;2023-07-29T07:13:12;5.30;;;1.33;;
5217;SDS011;26539;51.064;6.346;2023-07-29T07:15:37;3.20;;;1.27;;
5217;SDS011;26539;51.064;6.346;2023-07-29T07:18:03;2.90;;;1.80;;
5217;SDS011;26539;51.064;6.346;2023-07-29T07:20:28;2.43;;;1.53;;
5217;SDS011;26539;51.064;6.346;2023-07-29T07:22:54;1.83;;;1.63;;
5217;SDS011;26539;51.064;6.346;2023-07-29T07:25:20;2.43;;;1.63;;
5217;SDS011;26539;51.064;6.346;2023-07-29T07:27:46;1.80;;;1.70;;
5217;SDS011;26539;51.064;6.346;2023-07-29T07:30:11;3.23;;;1.70;;
5217;SDS011;26539;51.064;6.346;2023-07-29T07:32:37;6.03;;;1.43;;
5217;SDS011;26539;51.064;6.346;2023-07-29T07:35:03;2.70;;;1.17;;
5217;SDS011;26539;51.064;6.346;2023-07-29T07:37:29;3.67;;;1.40;;
5217;SDS011;26539;51.064;6.346;2023-07-29T07:39:54;1.67;;;1.33;;
5217;SDS011;26539;51.064;6.346;2023-07-29T07:42:20;2.03;;;1.23;;
5217;SDS011;26539;51.064;6.346;2023-07-29T07:44:45;3.87;;;1.03;;
5217;SDS011;26539;51.064;6.346;2023-07-29T07:47:11;2.53;;;1.00;;
5217;SDS011;26539;51.064;6.346;2023-07-29T07:49:36;1.87;;;1.20;;
5217;SDS011;26539;51.064;6.346;2023-07-29T07:52:02;2.13;;;1.00;;
5217;SDS011;26539;51.064;6.346;2023-07-29T07:54:28;2.23;;;0.93;;
5217;SDS011;26539;51.064;6.346;2023-07-29T07:56:53;1.77;;;1.00;;
5217;SDS011;26539;51.064;6.346;2023-07-29T07:59:19;1.57;;;0.90;;
5217;SDS011;26539;51.064;6.346;2023-07-29T08:01:44;2.10;;;0.80;;
5217;SDS011;26539;51.064;6.346;2023-07-29T08:04:10;1.17;;;0.97;;
5217;SDS011;26539;51.064;6.346;2023-07-29T08:06:35;3.53;;;0.90;;
5217;SDS011;26539;51.064;6.346;2023-07-29T08:09:01;1.73;;;0.90;;
5217;SDS011;26539;51.064;6.346;2023-07-29T08:11:26;1.93;;;0.87;;
5217;SDS011;26539;51.064;6.346;2023-07-29T08:13:52;1.00;;;0.73;;
5217;SDS011;26539;51.064;6.346;2023-07-29T08:16:17;1.00;;;0.83;;
5217;SDS011;26539;51.064;6.346;2023-07-29T08:18:43;2.50;;;1.00;;
5217;SDS011;26539;51.064;6.346;2023-07-29T08:21:08;1.00;;;0.70;;
5217;SDS011;26539;51.064;6.346;2023-07-29T08:23:34;1.07;;;0.83;;
5217;SDS011;26539;51.064;6.346;2023-07-29T08:26:01;1.60;;;0.90;;
5217;SDS011;26539;51.064;6.346;2023-07-29T08:28:34;2.70;;;1.03;;
5217;SDS011;26539;51.064;6.346;2023-07-29T08:31:00;1.10;;;0.90;;
5217;SDS011;26539;51.064;6.346;2023-07-29T08:33:26;1.20;;;0.70;;
5217;SDS011;26539;51.064;6.346;2023-07-29T08:35:52;1.40;;;0.80;;
5217;SDS011;26539;51.064;6.346;2023-07-29T08:38:18;2.07;;;0.90;;
5217;SDS011;26539;51.064;6.346;2023-07-29T08:40:45;1.63;;;0.90;;
5217;SDS011;26539;51.064;6.346;2023-07-29T08:43:22;1.30;;;0.90;;
5217;SDS011;26539;51.064;6.346;2023-07-29T08:45:55;1.33;;;1.00;;
5217;SDS011;26539;51.064;6.346;2023-07-29T08:48:23;2.40;;;1.20;;
5217;SDS011;26539;51.064;6.346;2023-07-29T08:50:56;2.50;;;1.10;;
5217;SDS011;26539;51.064;6.346;2023-07-29T08:53:24;2.83;;;1.10;;
5217;SDS011;26539;51.064;6.346;2023-07-29T08:55:50;1.30;;;0.97;;
5217;SDS011;26539;51.064;6.346;2023-07-29T08:58:16;1.10;;;0.90;;
5217;SDS011;26539;51.064;6.346;2023-07-29T09:00:42;1.97;;;0.80;;
5217;SDS011;26539;51.064;6.346;2023-07-29T09:03:08;1.83;;;1.00;;
5217;SDS011;26539;51.064;6.346;2023-07-29T09:05:34;1.50;;;1.00;;
5217;SDS011;26539;51.064;6.346;2023-07-29T09:07:59;3.03;;;1.50;;
5217;SDS011;26539;51.064;6.346;2023-07-29T09:10:27;3.50;;;1.37;;
5217;SDS011;26539;51.064;6.346;2023-07-29T09:12:55;2.03;;;1.20;;
5217;SDS011;26539;51.064;6.346;2023-07-29T09:15:28;2.37;;;0.90;;
5217;SDS011;26539;51.064;6.346;2023-07-29T09:17:55;3.70;;;1.37;;
5217;SDS011;26539;51.064;6.346;2023-07-29T09:20:25;5.23;;;1.30;;
5217;SDS011;26539;51.064;6.346;2023-07-29T09:22:52;2.70;;;0.90;;
5217;SDS011;26539;51.064;6.346;2023-07-29T09:25:23;1.30;;;1.10;;
5217;SDS011;26539;51.064;6.346;2023-07-29T09:27:58;1.30;;;0.90;;
5217;SDS011;26539;51.064;6.346;2023-07-29T09:30:32;1.73;;;0.90;;
5217;SDS011;26539;51.064;6.346;2023-07-29T09:32:58;3.27;;;1.23;;
5217;SDS011;26539;51.064;6.346;2023-07-29T09:35:27;1.33;;;0.90;;
5217;SDS011;26539;51.064;6.346;2023-07-29T09:37:53;2.70;;;1.07;;
5217;SDS011;26539;51.064;6.346;2023-07-29T09:40:18;4.13;;;1.03;;
5217;SDS011;26539;51.064;6.346;2023-07-29T09:42:47;3.20;;;1.20;;
5217;SDS011;26539;51.064;6.346;2023-07-29T09:45:19;1.40;;;1.03;;
5217;SDS011;26539;51.064;6.346;2023-07-29T09:47:51;2.00;;;1.40;;
5217;SDS011;26539;51.064;6.346;2023-07-29T09:50:17;1.30;;;1.00;;
5217;SDS011;26539;51.064;6.346;2023-07-29T09:52:43;1.83;;;1.03;;
5217;SDS011;26539;51.064;6.346;2023-07-29T09:55:10;1.27;;;0.90;;
5217;SDS011;26539;51.064;6.346;2023-07-29T09:57:37;1.73;;;0.97;;
5217;SDS011;26539;51.064;6.346;2023-07-29T10:00:04;1.43;;;1.00;;
5217;SDS011;26539;51.064;6.346;2023-07-29T10:02:35;1.77;;;0.87;;
5217;SDS011;26539;51.064;6.346;2023-07-29T10:05:05;1.80;;;0.97;;
5217;SDS011;26539;51.064;6.346;2023-07-29T10:07:31;3.00;;;1.10;;
5217;SDS011;26539;51.064;6.346;2023-07-29T10:09:57;3.03;;;0.97;;
5217;SDS011;26539;51.064;6.346;2023-07-29T10:12:24;2.00;;;1.47;;
5217;SDS011;26539;51.064;6.346;2023-07-29T10:14:50;2.70;;;1.37;;
5217;SDS011;26539;51.064;6.346;2023-07-29T10:17:17;2.00;;;1.00;;
5217;SDS011;26539;51.064;6.346;2023-07-29T10:19:45;2.80;;;1.20;;
5217;SDS011;26539;51.064;6.346;2023-07-29T10:22:12;2.40;;;1.40;;
5217;SDS011;26539;51.064;6.346;2023-07-29T10:24:39;1.70;;;1.47;;
5217;SDS011;26539;51.064;6.346;2023-07-29T10:27:10;1.77;;;1.10;;
5217;SDS011;26539;51.064;6.346;2023-07-29T10:29:38;2.37;;;1.10;;
5217;SDS011;26539;51.064;6.346;2023-07-29T10:32:07;2.03;;;1.23;;
5217;SDS011;26539;51.064;6.346;2023-07-29T10:34:34;2.27;;;1.27;;
5217;SDS011;26539;51.064;6.346;2023-07-29T10:37:01;2.90;;;1.33;;
5217;SDS011;26539;51.064;6.346;2023-07-29T10:39:27;2.67;;;1.10;;
5217;SDS011;26539;51.064;6.346;2023-07-29T10:41:59;2.13;;;1.33;;
5217;SDS011;26539;51.064;6.346;2023-07-29T10:47:17;2.23;;;1.17;;
5217;SDS011;26539;51.064;6.346;2023-07-29T10:49:43;2.10;;;1.27;;
5217;SDS011;26539;51.064;6.346;2023-07-29T10:52:12;1.70;;;1.43;;
5217;SDS011;26539;51.064;6.346;2023-07-29T10:54:45;2.40;;;1.33;;
5217;SDS011;26539;51.064;6.346;2023-07-29T10:57:13;2.13;;;1.10;;
5217;SDS011;26539;51.064;6.346;2023-07-29T10:59:40;3.40;;;1.40;;
5217;SDS011;26539;51.064;6.346;2023-07-29T11:02:15;2.60;;;1.17;;
5217;SDS011;26539;51.064;6.346;2023-07-29T11:04:47;1.83;;;1.07;;
5217;SDS011;26539;51.064;6.346;2023-07-29T11:15:22;2.67;;;1.47;;
5217;SDS011;26539;51.064;6.346;2023-07-29T11:20:21;1.60;;;1.20;;
5217;SDS011;26539;51.064;6.346;2023-07-29T11:22:51;2.23;;;1.40;;
5217;SDS011;26539;51.064;6.346;2023-07-29T11:25:18;1.57;;;1.33;;
5217;SDS011;26539;51.064;6.346;2023-07-29T11:27:44;3.00;;;1.30;;
5217;SDS011;26539;51.064;6.346;2023-07-29T11:30:11;1.60;;;1.10;;
5217;SDS011;26539;51.064;6.346;2023-07-29T11:32:38;1.23;;;1.00;;
5217;SDS011;26539;51.064;6.346;2023-07-29T11:35:06;2.20;;;1.40;;
5217;SDS011;26539;51.064;6.346;2023-07-29T11:37:38;1.60;;;1.20;;
5217;SDS011;26539;51.064;6.346;2023-07-29T11:40:04;5.93;;;1.20;;
5217;SDS011;26539;51.064;6.346;2023-07-29T11:42:31;4.77;;;1.50;;
5217;SDS011;26539;51.064;6.346;2023-07-29T11:44:58;1.50;;;1.00;;
5217;SDS011;26539;51.064;6.346;2023-07-29T11:47:24;2.03;;;1.40;;
5217;SDS011;26539;51.064;6.346;2023-07-29T11:49:50;1.47;;;1.13;;
5217;SDS011;26539;51.064;6.346;2023-07-29T11:52:16;1.33;;;1.13;;
5217;SDS011;26539;51.064;6.346;2023-07-29T11:54:44;1.10;;;0.90;;
5217;SDS011;26539;51.064;6.346;2023-07-29T11:57:11;1.63;;;1.30;;
5217;SDS011;26539;51.064;6.346;2023-07-29T11:59:44;2.03;;;1.30;;
5217;SDS011;26539;51.064;6.346;2023-07-29T12:02:15;2.57;;;1.10;;
5217;SDS011;26539;51.064;6.346;2023-07-29T12:04:42;1.70;;;1.33;;
5217;SDS011;26539;51.064;6.346;2023-07-29T12:07:09;1.50;;;1.30;;
5217;SDS011;26539;51.064;6.346;2023-07-29T12:09:35;1.60;;;1.30;;
5217;SDS011;26539;51.064;6.346;2023-07-29T12:12:03;1.97;;;1.37;;
5217;SDS011;26539;51.064;6.346;2023-07-29T12:14:29;1.93;;;1.50;;
5217;SDS011;26539;51.064;6.346;2023-07-29T12:16:55;4.03;;;1.23;;
5217;SDS011;26539;51.064;6.346;2023-07-29T12:19:24;1.70;;;1.33;;
5217;SDS011;26539;51.064;6.346;2023-07-29T12:21:50;1.87;;;1.63;;
5217;SDS011;26539;51.064;6.346;2023-07-29T12:24:16;2.70;;;1.33;;
5217;SDS011;26539;51.064;6.346;2023-07-29T12:26:42;1.97;;;1.50;;
5217;SDS011;26539;51.064;6.346;2023-07-29T12:29:11;2.00;;;1.77;;
5217;SDS011;26539;51.064;6.346;2023-07-29T12:31:37;5.30;;;1.17;;
5217;SDS011;26539;51.064;6.346;2023-07-29T12:34:03;2.93;;;1.53;;
5217;SDS011;26539;51.064;6.346;2023-07-29T12:36:45;2.60;;;1.53;;
5217;SDS011;26539;51.064;6.346;2023-07-29T12:39:31;2.07;;;1.20;;
5217;SDS011;26539;51.064;6.346;2023-07-29T12:42:02;2.30;;;1.43;;
5217;SDS011;26539;51.064;6.346;2023-07-29T12:44:32;1.70;;;1.40;;
5217;SDS011;26539;51.064;6.346;2023-07-29T12:47:00;2.93;;;1.73;;
5217;SDS011;26539;51.064;6.346;2023-07-29T12:49:27;5.10;;;2.10;;
5217;SDS011;26539;51.064;6.346;2023-07-29T12:51:54;3.03;;;2.27;;
5217;SDS011;26539;51.064;6.346;2023-07-29T12:54:20;2.30;;;1.40;;
5217;SDS011;26539;51.064;6.346;2023-07-29T12:56:45;3.83;;;1.93;;
5217;SDS011;26539;51.064;6.346;2023-07-29T12:59:11;2.20;;;1.70;;
5217;SDS011;26539;51.064;6.346;2023-07-29T13:01:36;3.40;;;1.63;;
5217;SDS011;26539;51.064;6.346;2023-07-29T13:04:02;2.30;;;2.00;;
5217;SDS011;26539;51.064;6.346;2023-07-29T13:06:28;4.07;;;1.80;;
5217;SDS011;26539;51.064;6.346;2023-07-29T13:08:53;2.80;;;2.10;;
5217;SDS011;26539;51.064;6.346;2023-07-29T13:11:19;2.50;;;2.27;;
5217;SDS011;26539;51.064;6.346;2023-07-29T13:13:44;2.50;;;1.90;;
5217;SDS011;26539;51.064;6.346;2023-07-29T13:16:11;3.70;;;2.17;;
5217;SDS011;26539;51.064;6.346;2023-07-29T13:18:37;3.97;;;2.47;;
5217;SDS011;26539;51.064;6.346;2023-07-29T13:21:03;5.53;;;2.20;;
5217;SDS011;26539;51.064;6.346;2023-07-29T13:23:28;5.97;;;2.57;;
5217;SDS011;26539;51.064;6.346;2023-07-29T13:25:55;3.73;;;3.10;;
5217;SDS011;26539;51.064;6.346;2023-07-29T13:28:21;3.77;;;2.97;;
5217;SDS011;26539;51.064;6.346;2023-07-29T13:30:47;5.83;;;3.47;;
5217;SDS011;26539;51.064;6.346;2023-07-29T13:33:12;4.43;;;3.27;;
5217;SDS011;26539;51.064;6.346;2023-07-29T13:35:38;3.20;;;2.80;;
5217;SDS011;26539;51.064;6.346;2023-07-29T13:38:03;6.50;;;4.10;;
5217;SDS011;26539;51.064;6.346;2023-07-29T13:40:29;6.27;;;3.33;;
5217;SDS011;26539;51.064;6.346;2023-07-29T13:42:55;3.27;;;2.60;;
5217;SDS011;26539;51.064;6.346;2023-07-29T13:45:21;3.53;;;3.00;;
5217;SDS011;26539;51.064;6.346;2023-07-29T13:47:47;3.77;;;2.87;;
5217;SDS011;26539;51.064;6.346;2023-07-29T13:50:13;3.73;;;2.70;;
5217;SDS011;26539;51.064;6.346;2023-07-29T13:52:39;4.20;;;2.73;;
5217;SDS011;26539;51.064;6.346;2023-07-29T13:55:04;6.67;;;3.00;;
5217;SDS011;26539;51.064;6.346;2023-07-29T13:57:31;3.37;;;2.97;;
5217;SDS011;26539;51.064;6.346;2023-07-29T13:59:56;3.90;;;2.80;;
5217;SDS011;26539;51.064;6.346;2023-07-29T14:02:22;3.00;;;2.20;;
5217;SDS011;26539;51.064;6.346;2023-07-29T14:04:48;4.00;;;2.00;;
5217;SDS011;26539;51.064;6.346;2023-07-29T14:07:13;4.20;;;2.53;;
5217;SDS011;26539;51.064;6.346;2023-07-29T14:09:39;3.20;;;2.20;;
5217;SDS011;26539;51.064;6.346;2023-07-29T14:12:05;3.80;;;2.20;;
5217;SDS011;26539;51.064;6.346;2023-07-29T14:14:31;3.57;;;2.00;;
5217;SDS011;26539;51.064;6.346;2023-07-29T14:16:57;4.10;;;2.10;;
5217;SDS011;26539;51.064;6.346;2023-07-29T14:19:23;3.30;;;2.30;;
5217;SDS011;26539;51.064;6.346;2023-07-29T14:21:49;2.93;;;2.10;;
5217;SDS011;26539;51.064;6.346;2023-07-29T14:24:14;4.33;;;2.17;;
5217;SDS011;26539;51.064;6.346;2023-07-29T14:26:42;3.03;;;2.23;;
5217;SDS011;26539;51.064;6.346;2023-07-29T14:29:08;4.03;;;2.40;;
5217;SDS011;26539;51.064;6.346;2023-07-29T14:31:33;4.80;;;2.80;;
5217;SDS011;26539;51.064;6.346;2023-07-29T14:33:59;3.40;;;2.30;;
5217;SDS011;26539;51.064;6.346;2023-07-29T14:36:25;2.33;;;2.13;;
5217;SDS011;26539;51.064;6.346;2023-07-29T14:38:51;1.87;;;1.70;;
5217;SDS011;26539;51.064;6.346;2023-07-29T14:41:16;2.23;;;1.60;;
5217;SDS011;26539;51.064;6.346;2023-07-29T14:43:42;4.00;;;2.30;;
5217;SDS011;26539;51.064;6.346;2023-07-29T14:46:07;2.63;;;2.00;;
5217;SDS011;26539;51.064;6.346;2023-07-29T14:48:33;2.63;;;1.80;;
5217;SDS011;26539;51.064;6.346;2023-07-29T14:50:59;2.50;;;1.80;;
5217;SDS011;26539;51.064;6.346;2023-07-29T14:53:24;6.23;;;1.70;;
5217;SDS011;26539;51.064;6.346;2023-07-29T14:55:50;4.03;;;2.00;;
5217;SDS011;26539;51.064;6.346;2023-07-29T14:58:15;1.87;;;1.63;;
5217;SDS011;26539;51.064;6.346;2023-07-29T15:00:42;2.83;;;1.90;;
5217;SDS011;26539;51.064;6.346;2023-07-29T15:03:07;2.30;;;1.97;;
5217;SDS011;26539;51.064;6.346;2023-07-29T15:05:33;3.63;;;1.77;;
5217;SDS011;26539;51.064;6.346;2023-07-29T15:07:58;2.60;;;1.70;;
5217;SDS011;26539;51.064;6.346;2023-07-29T15:10:24;1.50;;;1.20;;
5217;SDS011;26539;51.064;6.346;2023-07-29T15:12:49;2.00;;;1.60;;
5217;SDS011;26539;51.064;6.346;2023-07-29T15:15:15;2.00;;;1.60;;
5217;SDS011;26539;51.064;6.346;2023-07-29T15:17:40;2.20;;;1.27;;
5217;SDS011;26539;51.064;6.346;2023-07-29T15:20:06;2.07;;;1.70;;
5217;SDS011;26539;51.064;6.346;2023-07-29T15:22:32;2.83;;;1.90;;
5217;SDS011;26539;51.064;6.346;2023-07-29T15:24:58;2.50;;;1.83;;
5217;SDS011;26539;51.064;6.346;2023-07-29T15:27:27;2.00;;;1.60;;
5217;SDS011;26539;51.064;6.346;2023-07-29T15:29:53;2.33;;;1.63;;
5217;SDS011;26539;51.064;6.346;2023-07-29T15:32:19;1.80;;;1.57;;
5217;SDS011;26539;51.064;6.346;2023-07-29T15:34:44;3.07;;;2.00;;
5217;SDS011;26539;51.064;6.346;2023-07-29T15:37:10;5.97;;;1.50;;
5217;SDS011;26539;51.064;6.346;2023-07-29T15:39:35;2.00;;;1.70;;
5217;SDS011;26539;51.064;6.346;2023-07-29T15:42:01;3.70;;;1.93;;
5217;SDS011;26539;51.064;6.346;2023-07-29T15:44:26;1.60;;;1.47;;